sensor_id;sensor_type;location;lat;lon;timestamp;temperature;humidity
9987;DHT22;5033;46.310;11.214;2023-02-28T00:00:12;4.50;99.90
9987;DHT22;5033;46.310;11.214;2023-02-28T00:02:42;4.50;99.90
9987;DHT22;5033;46.310;11.214;2023-02-28T00:05:11;4.50;99.90
9987;DHT22;5033;46.310;11.214;2023-02-28T00:07:38;4.50;99.90
9987;DHT22;5033;46.310;11.214;2023-02-28T00:10:10;4.50;99.90
9987;DHT22;5033;46.310;11.214;2023-02-28T00:12:38;4.50;99.90
9987;DHT22;5033;46.310;11.214;2023-02-28T00:15:06;4.50;99.90
9987;DHT22;5033;46.310;11.214;2023-02-28T00:17:34;4.50;99.90
9987;DHT22;5033;46.310;11.214;2023-02-28T00:20:02;4.50;99.90
9987;DHT22;5033;46.310;11.214;2023-02-28T00:22:38;4.50;99.90
9987;DHT22;5033;46.310;11.214;2023-02-28T00:25:09;4.50;99.90
9987;DHT22;5033;46.310;11.214;2023-02-28T00:27:37;4.40;99.90
9987;DHT22;5033;46.310;11.214;2023-02-28T00:30:08;4.40;99.90
9987;DHT22;5033;46.310;11.214;2023-02-28T00:32:36;4.30;99.90
9987;DHT22;5033;46.310;11.214;2023-02-28T00:35:05;4.30;99.90
9987;DHT22;5033;46.310;11.214;2023-02-28T00:37:32;4.30;99.90
9987;DHT22;5033;46.310;11.214;2023-02-28T00:40:00;4.30;99.90
9987;DHT22;5033;46.310;11.214;2023-02-28T00:42:32;4.30;99.90
9987;DHT22;5033;46.310;11.214;2023-02-28T00:44:59;4.30;99.90
9987;DHT22;5033;46.310;11.214;2023-02-28T00:47:26;4.20;99.90
9987;DHT22;5033;46.310;11.214;2023-02-28T00:49:53;4.20;99.90
9987;DHT22;5033;46.310;11.214;2023-02-28T00:52:21;4.20;99.90
9987;DHT22;5033;46.310;11.214;2023-02-28T00:54:48;4.20;99.90
9987;DHT22;5033;46.310;11.214;2023-02-28T00:57:15;4.20;99.90
9987;DHT22;5033;46.310;11.214;2023-02-28T00:59:43;4.20;99.90
9987;DHT22;5033;46.310;11.214;2023-02-28T01:02:11;4.20;99.90
9987;DHT22;5033;46.310;11.214;2023-02-28T01:04:40;4.10;99.90
9987;DHT22;5033;46.310;11.214;2023-02-28T01:07:07;4.00;99.90
9987;DHT22;5033;46.310;11.214;2023-02-28T01:09:35;4.00;99.90
9987;DHT22;5033;46.310;11.214;2023-02-28T01:12:03;3.90;99.90
9987;DHT22;5033;46.310;11.214;2023-02-28T01:14:30;3.90;99.90
9987;DHT22;5033;46.310;11.214;2023-02-28T01:16:59;4.00;99.90
9987;DHT22;5033;46.310;11.214;2023-02-28T01:19:26;3.90;99.90
9987;DHT22;5033;46.310;11.214;2023-02-28T01:21:53;4.00;99.90
9987;DHT22;5033;46.310;11.214;2023-02-28T01:24:20;3.90;99.90
9987;DHT22;5033;46.310;11.214;2023-02-28T01:26:48;4.00;99.90
9987;DHT22;5033;46.310;11.214;2023-02-28T01:29:15;4.00;99.90
9987;DHT22;5033;46.310;11.214;2023-02-28T01:31:43;4.00;99.90
9987;DHT22;5033;46.310;11.214;2023-02-28T01:34:11;4.00;99.90
9987;DHT22;5033;46.310;11.214;2023-02-28T01:36:39;3.90;99.90
9987;DHT22;5033;46.310;11.214;2023-02-28T01:39:06;3.90;99.90
9987;DHT22;5033;46.310;11.214;2023-02-28T01:41:34;3.90;99.90
9987;DHT22;5033;46.310;11.214;2023-02-28T01:44:04;3.90;99.90
9987;DHT22;5033;46.310;11.214;2023-02-28T01:46:32;3.90;99.90
9987;DHT22;5033;46.310;11.214;2023-02-28T01:49:05;3.90;99.90
9987;DHT22;5033;46.310;11.214;2023-02-28T01:51:38;3.90;99.90
9987;DHT22;5033;46.310;11.214;2023-02-28T01:54:16;3.80;99.90
9987;DHT22;5033;46.310;11.214;2023-02-28T01:56:47;3.80;99.90
9987;DHT22;5033;46.310;11.214;2023-02-28T01:59:22;3.80;99.90
9987;DHT22;5033;46.310;11.214;2023-02-28T02:01:52;3.80;99.90
9987;DHT22;5033;46.310;11.214;2023-02-28T02:04:21;3.80;99.90
9987;DHT22;5033;46.310;11.214;2023-02-28T02:06:52;3.80;99.90
9987;DHT22;5033;46.310;11.214;2023-02-28T02:09:19;3.80;99.90
9987;DHT22;5033;46.310;11.214;2023-02-28T02:11:46;3.80;99.90
9987;DHT22;5033;46.310;11.214;2023-02-28T02:14:40;3.80;99.90
9987;DHT22;5033;46.310;11.214;2023-02-28T02:17:20;3.80;99.90
9987;DHT22;5033;46.310;11.214;2023-02-28T02:23:27;3.90;99.90
9987;DHT22;5033;46.310;11.214;2023-02-28T02:26:11;3.90;99.90
9987;DHT22;5033;46.310;11.214;2023-02-28T02:29:06;3.90;99.90
9987;DHT22;5033;46.310;11.214;2023-02-28T02:32:13;3.90;99.90
9987;DHT22;5033;46.310;11.214;2023-02-28T02:34:58;3.90;99.90
9987;DHT22;5033;46.310;11.214;2023-02-28T02:37:35;3.90;99.90
9987;DHT22;5033;46.310;11.214;2023-02-28T02:40:11;3.90;99.90
9987;DHT22;5033;46.310;11.214;2023-02-28T02:42:44;3.90;99.90
9987;DHT22;5033;46.310;11.214;2023-02-28T02:45:17;3.90;99.90
9987;DHT22;5033;46.310;11.214;2023-02-28T02:47:53;3.80;99.90
9987;DHT22;5033;46.310;11.214;2023-02-28T02:50:29;3.80;99.90
9987;DHT22;5033;46.310;11.214;2023-02-28T02:53:00;3.80;99.90
9987;DHT22;5033;46.310;11.214;2023-02-28T02:55:31;3.90;99.90
9987;DHT22;5033;46.310;11.214;2023-02-28T02:58:02;3.80;99.90
9987;DHT22;5033;46.310;11.214;2023-02-28T03:00:34;3.80;99.90
9987;DHT22;5033;46.310;11.214;2023-02-28T03:03:02;3.80;99.90
9987;DHT22;5033;46.310;11.214;2023-02-28T03:05:35;3.80;99.90
9987;DHT22;5033;46.310;11.214;2023-02-28T03:08:06;3.80;99.90
9987;DHT22;5033;46.310;11.214;2023-02-28T03:10:36;3.80;99.90
9987;DHT22;5033;46.310;11.214;2023-02-28T03:13:22;3.80;99.90
9987;DHT22;5033;46.310;11.214;2023-02-28T03:16:01;3.70;99.90
9987;DHT22;5033;46.310;11.214;2023-02-28T03:18:39;3.70;99.90
9987;DHT22;5033;46.310;11.214;2023-02-28T03:21:17;3.70;99.90
9987;DHT22;5033;46.310;11.214;2023-02-28T03:23:56;3.80;99.90
9987;DHT22;5033;46.310;11.214;2023-02-28T03:26:38;3.70;99.90
9987;DHT22;5033;46.310;11.214;2023-02-28T03:29:11;3.50;99.90
9987;DHT22;5033;46.310;11.214;2023-02-28T03:31:46;3.50;99.90
9987;DHT22;5033;46.310;11.214;2023-02-28T03:34:19;3.50;99.90
9987;DHT22;5033;46.310;11.214;2023-02-28T03:36:53;3.50;99.90
9987;DHT22;5033;46.310;11.214;2023-02-28T03:39:23;3.50;99.90
9987;DHT22;5033;46.310;11.214;2023-02-28T03:41:54;3.50;99.90
9987;DHT22;5033;46.310;11.214;2023-02-28T03:44:28;3.50;99.90
9987;DHT22;5033;46.310;11.214;2023-02-28T03:46:59;3.50;99.90
9987;DHT22;5033;46.310;11.214;2023-02-28T03:49:30;3.60;99.90
9987;DHT22;5033;46.310;11.214;2023-02-28T03:52:02;3.60;99.90
9987;DHT22;5033;46.310;11.214;2023-02-28T03:54:33;3.60;99.90
9987;DHT22;5033;46.310;11.214;2023-02-28T03:57:06;3.60;99.90
9987;DHT22;5033;46.310;11.214;2023-02-28T03:59:37;3.60;99.90
9987;DHT22;5033;46.310;11.214;2023-02-28T04:02:06;3.60;99.90
9987;DHT22;5033;46.310;11.214;2023-02-28T04:04:34;3.50;99.90
9987;DHT22;5033;46.310;11.214;2023-02-28T04:07:05;3.50;99.90
9987;DHT22;5033;46.310;11.214;2023-02-28T04:09:33;3.50;99.90
9987;DHT22;5033;46.310;11.214;2023-02-28T04:12:00;3.50;99.90
9987;DHT22;5033;46.310;11.214;2023-02-28T04:14:27;3.60;99.90
9987;DHT22;5033;46.310;11.214;2023-02-28T04:16:54;3.60;99.90
9987;DHT22;5033;46.310;11.214;2023-02-28T04:19:21;3.60;99.90
9987;DHT22;5033;46.310;11.214;2023-02-28T04:21:50;3.60;99.90
9987;DHT22;5033;46.310;11.214;2023-02-28T04:24:21;3.60;99.90
9987;DHT22;5033;46.310;11.214;2023-02-28T04:26:50;3.60;99.90
9987;DHT22;5033;46.310;11.214;2023-02-28T04:29:20;3.60;99.90
9987;DHT22;5033;46.310;11.214;2023-02-28T04:31:48;3.60;99.90
9987;DHT22;5033;46.310;11.214;2023-02-28T04:34:15;3.60;99.90
9987;DHT22;5033;46.310;11.214;2023-02-28T04:36:44;3.60;99.90
9987;DHT22;5033;46.310;11.214;2023-02-28T04:39:14;3.50;99.90
9987;DHT22;5033;46.310;11.214;2023-02-28T04:41:45;3.50;99.90
9987;DHT22;5033;46.310;11.214;2023-02-28T04:44:12;3.40;99.90
9987;DHT22;5033;46.310;11.214;2023-02-28T04:46:39;3.40;99.90
9987;DHT22;5033;46.310;11.214;2023-02-28T04:49:06;3.40;99.90
9987;DHT22;5033;46.310;11.214;2023-02-28T04:51:35;3.50;99.90
9987;DHT22;5033;46.310;11.214;2023-02-28T04:54:02;3.50;99.90
9987;DHT22;5033;46.310;11.214;2023-02-28T04:56:29;3.50;99.90
9987;DHT22;5033;46.310;11.214;2023-02-28T04:58:57;3.50;99.90
9987;DHT22;5033;46.310;11.214;2023-02-28T05:01:26;3.50;99.90
9987;DHT22;5033;46.310;11.214;2023-02-28T05:03:54;3.50;99.90
9987;DHT22;5033;46.310;11.214;2023-02-28T05:06:22;3.40;99.90
9987;DHT22;5033;46.310;11.214;2023-02-28T05:08:50;3.50;99.90
9987;DHT22;5033;46.310;11.214;2023-02-28T05:11:20;3.50;99.90
9987;DHT22;5033;46.310;11.214;2023-02-28T05:13:47;3.50;99.90
9987;DHT22;5033;46.310;11.214;2023-02-28T05:16:16;3.50;99.90
9987;DHT22;5033;46.310;11.214;2023-02-28T05:18:43;3.50;99.90
9987;DHT22;5033;46.310;11.214;2023-02-28T05:21:25;3.50;99.90
9987;DHT22;5033;46.310;11.214;2023-02-28T05:23:54;3.60;99.90
9987;DHT22;5033;46.310;11.214;2023-02-28T05:26:21;3.50;99.90
9987;DHT22;5033;46.310;11.214;2023-02-28T05:28:49;3.50;99.90
9987;DHT22;5033;46.310;11.214;2023-02-28T05:31:18;3.50;99.90
9987;DHT22;5033;46.310;11.214;2023-02-28T05:33:45;3.50;99.90
9987;DHT22;5033;46.310;11.214;2023-02-28T05:36:13;3.50;99.90
9987;DHT22;5033;46.310;11.214;2023-02-28T05:38:40;3.50;99.90
9987;DHT22;5033;46.310;11.214;2023-02-28T05:41:08;3.50;99.90
9987;DHT22;5033;46.310;11.214;2023-02-28T05:43:35;3.50;99.90
9987;DHT22;5033;46.310;11.214;2023-02-28T05:46:04;3.50;99.90
9987;DHT22;5033;46.310;11.214;2023-02-28T05:48:33;3.50;99.90
9987;DHT22;5033;46.310;11.214;2023-02-28T05:51:01;3.50;99.90
9987;DHT22;5033;46.310;11.214;2023-02-28T05:53:28;3.50;99.90
9987;DHT22;5033;46.310;11.214;2023-02-28T05:55:55;3.50;99.90
9987;DHT22;5033;46.310;11.214;2023-02-28T05:58:23;3.50;99.90
9987;DHT22;5033;46.310;11.214;2023-02-28T06:00:51;3.40;99.90
9987;DHT22;5033;46.310;11.214;2023-02-28T06:03:18;3.50;99.90
9987;DHT22;5033;46.310;11.214;2023-02-28T06:05:47;3.50;99.90
9987;DHT22;5033;46.310;11.214;2023-02-28T06:08:14;3.50;99.90
9987;DHT22;5033;46.310;11.214;2023-02-28T06:10:41;3.60;99.90
9987;DHT22;5033;46.310;11.214;2023-02-28T06:13:08;3.60;99.90
9987;DHT22;5033;46.310;11.214;2023-02-28T06:15:35;3.60;99.90
9987;DHT22;5033;46.310;11.214;2023-02-28T06:18:02;3.60;99.90
9987;DHT22;5033;46.310;11.214;2023-02-28T06:20:30;3.60;99.90
9987;DHT22;5033;46.310;11.214;2023-02-28T06:22:58;3.60;99.90
9987;DHT22;5033;46.310;11.214;2023-02-28T06:25:26;3.70;99.90
9987;DHT22;5033;46.310;11.214;2023-02-28T06:27:54;3.70;99.90
9987;DHT22;5033;46.310;11.214;2023-02-28T06:30:22;3.70;99.90
9987;DHT22;5033;46.310;11.214;2023-02-28T06:32:50;3.60;99.90
9987;DHT22;5033;46.310;11.214;2023-02-28T06:35:19;3.70;99.90
9987;DHT22;5033;46.310;11.214;2023-02-28T06:37:47;3.80;99.90
9987;DHT22;5033;46.310;11.214;2023-02-28T06:40:17;3.80;99.90
9987;DHT22;5033;46.310;11.214;2023-02-28T06:42:44;3.80;99.90
9987;DHT22;5033;46.310;11.214;2023-02-28T06:45:11;3.80;99.90
9987;DHT22;5033;46.310;11.214;2023-02-28T06:47:40;3.80;99.90
9987;DHT22;5033;46.310;11.214;2023-02-28T06:50:09;3.80;99.90
9987;DHT22;5033;46.310;11.214;2023-02-28T06:52:36;3.80;99.90
9987;DHT22;5033;46.310;11.214;2023-02-28T06:55:04;3.80;99.90
9987;DHT22;5033;46.310;11.214;2023-02-28T06:57:35;3.80;99.90
9987;DHT22;5033;46.310;11.214;2023-02-28T07:00:06;3.70;99.90
9987;DHT22;5033;46.310;11.214;2023-02-28T07:02:37;3.80;99.90
9987;DHT22;5033;46.310;11.214;2023-02-28T07:05:05;3.80;99.90
9987;DHT22;5033;46.310;11.214;2023-02-28T07:07:32;3.80;99.90
9987;DHT22;5033;46.310;11.214;2023-02-28T07:09:59;3.90;99.90
9987;DHT22;5033;46.310;11.214;2023-02-28T07:12:27;4.00;99.90
9987;DHT22;5033;46.310;11.214;2023-02-28T07:14:57;4.00;99.90
9987;DHT22;5033;46.310;11.214;2023-02-28T07:17:24;4.00;99.90
9987;DHT22;5033;46.310;11.214;2023-02-28T07:19:51;4.00;99.90
9987;DHT22;5033;46.310;11.214;2023-02-28T07:22:18;4.10;99.90
9987;DHT22;5033;46.310;11.214;2023-02-28T07:24:46;4.10;99.90
9987;DHT22;5033;46.310;11.214;2023-02-28T07:27:12;4.20;99.90
9987;DHT22;5033;46.310;11.214;2023-02-28T07:29:51;4.30;99.90
9987;DHT22;5033;46.310;11.214;2023-02-28T07:32:20;4.40;99.90
9987;DHT22;5033;46.310;11.214;2023-02-28T07:34:47;4.80;99.90
9987;DHT22;5033;46.310;11.214;2023-02-28T07:37:14;5.90;99.90
9987;DHT22;5033;46.310;11.214;2023-02-28T07:39:41;6.70;99.90
9987;DHT22;5033;46.310;11.214;2023-02-28T07:42:09;7.40;99.90
9987;DHT22;5033;46.310;11.214;2023-02-28T07:44:37;8.10;99.90
9987;DHT22;5033;46.310;11.214;2023-02-28T07:47:08;8.90;99.90
9987;DHT22;5033;46.310;11.214;2023-02-28T07:49:38;9.30;99.90
9987;DHT22;5033;46.310;11.214;2023-02-28T07:52:06;9.50;99.90
9987;DHT22;5033;46.310;11.214;2023-02-28T07:54:36;9.60;99.90
9987;DHT22;5033;46.310;11.214;2023-02-28T07:57:03;9.50;99.90
9987;DHT22;5033;46.310;11.214;2023-02-28T07:59:30;9.00;99.90
9987;DHT22;5033;46.310;11.214;2023-02-28T08:01:57;8.60;99.90
9987;DHT22;5033;46.310;11.214;2023-02-28T08:04:24;9.00;99.90
9987;DHT22;5033;46.310;11.214;2023-02-28T08:06:53;9.50;99.90
9987;DHT22;5033;46.310;11.214;2023-02-28T08:09:22;10.10;99.90
9987;DHT22;5033;46.310;11.214;2023-02-28T08:11:50;10.60;99.90
9987;DHT22;5033;46.310;11.214;2023-02-28T08:14:17;10.70;99.90
9987;DHT22;5033;46.310;11.214;2023-02-28T08:16:44;10.90;99.90
9987;DHT22;5033;46.310;11.214;2023-02-28T08:19:12;11.30;99.90
9987;DHT22;5033;46.310;11.214;2023-02-28T08:21:40;11.60;99.90
9987;DHT22;5033;46.310;11.214;2023-02-28T08:24:09;11.70;99.90
9987;DHT22;5033;46.310;11.214;2023-02-28T08:26:36;11.70;99.90
9987;DHT22;5033;46.310;11.214;2023-02-28T08:29:04;11.70;99.90
9987;DHT22;5033;46.310;11.214;2023-02-28T08:31:31;11.90;99.90
9987;DHT22;5033;46.310;11.214;2023-02-28T08:34:05;12.20;99.90
9987;DHT22;5033;46.310;11.214;2023-02-28T08:36:32;12.30;99.90
9987;DHT22;5033;46.310;11.214;2023-02-28T08:39:01;12.30;99.90
9987;DHT22;5033;46.310;11.214;2023-02-28T08:41:30;12.30;99.90
9987;DHT22;5033;46.310;11.214;2023-02-28T08:43:57;12.50;99.90
9987;DHT22;5033;46.310;11.214;2023-02-28T08:46:24;12.60;99.90
9987;DHT22;5033;46.310;11.214;2023-02-28T08:48:53;12.40;99.90
9987;DHT22;5033;46.310;11.214;2023-02-28T08:51:21;12.60;99.90
9987;DHT22;5033;46.310;11.214;2023-02-28T08:53:52;12.60;99.90
9987;DHT22;5033;46.310;11.214;2023-02-28T08:56:19;12.40;99.90
9987;DHT22;5033;46.310;11.214;2023-02-28T08:58:49;12.60;99.90
9987;DHT22;5033;46.310;11.214;2023-02-28T09:01:20;12.20;99.90
9987;DHT22;5033;46.310;11.214;2023-02-28T09:03:48;11.40;99.90
9987;DHT22;5033;46.310;11.214;2023-02-28T09:06:17;11.10;99.90
9987;DHT22;5033;46.310;11.214;2023-02-28T09:08:44;10.80;99.90
9987;DHT22;5033;46.310;11.214;2023-02-28T09:11:12;10.70;99.90
9987;DHT22;5033;46.310;11.214;2023-02-28T09:13:40;10.60;99.90
9987;DHT22;5033;46.310;11.214;2023-02-28T09:16:11;10.40;99.90
9987;DHT22;5033;46.310;11.214;2023-02-28T09:18:38;10.90;99.90
9987;DHT22;5033;46.310;11.214;2023-02-28T09:21:06;11.80;99.90
9987;DHT22;5033;46.310;11.214;2023-02-28T09:23:34;12.20;99.90
9987;DHT22;5033;46.310;11.214;2023-02-28T09:26:04;12.50;99.90
9987;DHT22;5033;46.310;11.214;2023-02-28T09:28:32;12.60;99.90
9987;DHT22;5033;46.310;11.214;2023-02-28T09:30:59;12.60;99.90
9987;DHT22;5033;46.310;11.214;2023-02-28T09:33:27;12.90;99.90
9987;DHT22;5033;46.310;11.214;2023-02-28T09:35:59;12.80;99.90
9987;DHT22;5033;46.310;11.214;2023-02-28T09:38:26;12.90;99.90
9987;DHT22;5033;46.310;11.214;2023-02-28T09:40:56;12.60;99.90
9987;DHT22;5033;46.310;11.214;2023-02-28T09:43:28;12.90;99.90
9987;DHT22;5033;46.310;11.214;2023-02-28T09:46:00;13.10;99.90
9987;DHT22;5033;46.310;11.214;2023-02-28T09:48:33;13.30;99.50
9987;DHT22;5033;46.310;11.214;2023-02-28T09:51:04;13.30;99.90
9987;DHT22;5033;46.310;11.214;2023-02-28T09:53:33;13.40;99.90
9987;DHT22;5033;46.310;11.214;2023-02-28T09:56:07;13.30;99.20
9987;DHT22;5033;46.310;11.214;2023-02-28T09:58:39;13.60;99.70
9987;DHT22;5033;46.310;11.214;2023-02-28T10:01:12;13.90;98.80
9987;DHT22;5033;46.310;11.214;2023-02-28T10:03:49;14.20;97.70
9987;DHT22;5033;46.310;11.214;2023-02-28T10:06:27;14.10;97.50
9987;DHT22;5033;46.310;11.214;2023-02-28T10:08:58;14.20;96.20
9987;DHT22;5033;46.310;11.214;2023-02-28T10:11:28;14.10;96.00
9987;DHT22;5033;46.310;11.214;2023-02-28T10:14:00;14.30;96.50
9987;DHT22;5033;46.310;11.214;2023-02-28T10:16:35;14.40;94.30
9987;DHT22;5033;46.310;11.214;2023-02-28T10:19:08;13.90;94.30
9987;DHT22;5033;46.310;11.214;2023-02-28T10:21:39;13.60;94.30
9987;DHT22;5033;46.310;11.214;2023-02-28T10:24:16;13.10;94.00
9987;DHT22;5033;46.310;11.214;2023-02-28T10:26:47;12.90;95.30
9987;DHT22;5033;46.310;11.214;2023-02-28T10:29:16;13.00;95.60
9987;DHT22;5033;46.310;11.214;2023-02-28T10:31:43;13.30;94.60
9987;DHT22;5033;46.310;11.214;2023-02-28T10:34:13;13.20;94.00
9987;DHT22;5033;46.310;11.214;2023-02-28T10:36:41;13.40;93.90
9987;DHT22;5033;46.310;11.214;2023-02-28T10:39:36;13.90;94.00
9987;DHT22;5033;46.310;11.214;2023-02-28T10:42:03;14.30;92.70
9987;DHT22;5033;46.310;11.214;2023-02-28T10:44:31;14.30;92.30
9987;DHT22;5033;46.310;11.214;2023-02-28T10:46:58;14.10;92.80
9987;DHT22;5033;46.310;11.214;2023-02-28T10:49:28;14.30;92.80
9987;DHT22;5033;46.310;11.214;2023-02-28T10:51:57;14.60;92.70
9987;DHT22;5033;46.310;11.214;2023-02-28T10:54:27;15.00;93.20
9987;DHT22;5033;46.310;11.214;2023-02-28T10:57:15;15.00;92.00
9987;DHT22;5033;46.310;11.214;2023-02-28T10:59:43;14.70;91.40
9987;DHT22;5033;46.310;11.214;2023-02-28T11:02:32;14.30;91.30
9987;DHT22;5033;46.310;11.214;2023-02-28T11:05:01;14.30;91.50
9987;DHT22;5033;46.310;11.214;2023-02-28T11:07:28;13.90;91.70
9987;DHT22;5033;46.310;11.214;2023-02-28T11:09:57;13.70;91.50
9987;DHT22;5033;46.310;11.214;2023-02-28T11:12:26;13.40;91.90
9987;DHT22;5033;46.310;11.214;2023-02-28T11:14:57;13.30;92.80
9987;DHT22;5033;46.310;11.214;2023-02-28T11:17:27;13.40;92.70
9987;DHT22;5033;46.310;11.214;2023-02-28T11:19:58;13.30;92.10
9987;DHT22;5033;46.310;11.214;2023-02-28T11:22:32;13.40;92.60
9987;DHT22;5033;46.310;11.214;2023-02-28T11:25:03;13.70;92.80
9987;DHT22;5033;46.310;11.214;2023-02-28T11:27:51;14.00;92.90
9987;DHT22;5033;46.310;11.214;2023-02-28T11:30:27;14.10;92.30
9987;DHT22;5033;46.310;11.214;2023-02-28T11:32:55;14.00;91.50
9987;DHT22;5033;46.310;11.214;2023-02-28T11:35:26;14.10;92.40
9987;DHT22;5033;46.310;11.214;2023-02-28T11:37:57;14.20;91.30
9987;DHT22;5033;46.310;11.214;2023-02-28T11:40:30;14.30;91.80
9987;DHT22;5033;46.310;11.214;2023-02-28T11:43:12;14.70;92.20
9987;DHT22;5033;46.310;11.214;2023-02-28T11:45:49;14.70;91.60
9987;DHT22;5033;46.310;11.214;2023-02-28T11:48:22;15.00;91.00
9987;DHT22;5033;46.310;11.214;2023-02-28T11:51:01;14.90;90.70
9987;DHT22;5033;46.310;11.214;2023-02-28T11:53:48;15.00;90.70
9987;DHT22;5033;46.310;11.214;2023-02-28T11:56:23;14.70;90.10
9987;DHT22;5033;46.310;11.214;2023-02-28T11:59:02;14.60;90.30
9987;DHT22;5033;46.310;11.214;2023-02-28T12:01:58;14.60;90.70
9987;DHT22;5033;46.310;11.214;2023-02-28T12:04:36;14.70;90.60
9987;DHT22;5033;46.310;11.214;2023-02-28T12:07:15;14.70;90.40
9987;DHT22;5033;46.310;11.214;2023-02-28T12:09:54;14.70;91.20
9987;DHT22;5033;46.310;11.214;2023-02-28T12:12:38;14.80;91.10
9987;DHT22;5033;46.310;11.214;2023-02-28T12:15:17;14.70;90.20
9987;DHT22;5033;46.310;11.214;2023-02-28T12:17:56;14.40;90.20
9987;DHT22;5033;46.310;11.214;2023-02-28T12:20:32;14.60;90.10
9987;DHT22;5033;46.310;11.214;2023-02-28T12:23:18;14.70;90.20
9987;DHT22;5033;46.310;11.214;2023-02-28T12:26:02;14.60;88.60
9987;DHT22;5033;46.310;11.214;2023-02-28T12:31:06;14.90;90.40
9987;DHT22;5033;46.310;11.214;2023-02-28T12:33:39;14.60;89.70
9987;DHT22;5033;46.310;11.214;2023-02-28T12:36:11;14.90;90.10
9987;DHT22;5033;46.310;11.214;2023-02-28T12:38:44;14.80;88.90
9987;DHT22;5033;46.310;11.214;2023-02-28T12:41:15;14.60;89.10
9987;DHT22;5033;46.310;11.214;2023-02-28T12:43:46;14.70;88.30
9987;DHT22;5033;46.310;11.214;2023-02-28T12:46:19;14.30;88.20
9987;DHT22;5033;46.310;11.214;2023-02-28T12:48:49;14.20;88.70
9987;DHT22;5033;46.310;11.214;2023-02-28T12:51:17;14.40;89.00
9987;DHT22;5033;46.310;11.214;2023-02-28T12:53:54;14.40;87.40
9987;DHT22;5033;46.310;11.214;2023-02-28T12:56:32;14.30;88.10
9987;DHT22;5033;46.310;11.214;2023-02-28T12:59:05;14.20;87.90
9987;DHT22;5033;46.310;11.214;2023-02-28T13:04:57;14.00;86.20
9987;DHT22;5033;46.310;11.214;2023-02-28T13:10:24;13.90;87.40
9987;DHT22;5033;46.310;11.214;2023-02-28T13:12:54;13.70;88.80
9987;DHT22;5033;46.310;11.214;2023-02-28T13:15:24;13.60;89.00
9987;DHT22;5033;46.310;11.214;2023-02-28T13:17:55;13.80;89.50
9987;DHT22;5033;46.310;11.214;2023-02-28T13:20:25;13.70;86.70
9987;DHT22;5033;46.310;11.214;2023-02-28T13:22:54;13.60;89.30
9987;DHT22;5033;46.310;11.214;2023-02-28T13:25:52;13.60;89.40
9987;DHT22;5033;46.310;11.214;2023-02-28T13:34:36;13.80;86.30
9987;DHT22;5033;46.310;11.214;2023-02-28T13:37:35;13.60;87.60
9987;DHT22;5033;46.310;11.214;2023-02-28T13:40:27;13.40;88.40
9987;DHT22;5033;46.310;11.214;2023-02-28T13:42:54;13.20;87.20
9987;DHT22;5033;46.310;11.214;2023-02-28T13:45:24;13.30;88.20
9987;DHT22;5033;46.310;11.214;2023-02-28T13:47:53;13.20;87.40
9987;DHT22;5033;46.310;11.214;2023-02-28T13:50:28;13.10;88.70
9987;DHT22;5033;46.310;11.214;2023-02-28T13:56:05;13.40;87.30
9987;DHT22;5033;46.310;11.214;2023-02-28T13:58:46;13.50;89.40
9987;DHT22;5033;46.310;11.214;2023-02-28T14:01:32;13.60;87.60
9987;DHT22;5033;46.310;11.214;2023-02-28T14:04:20;13.40;87.50
9987;DHT22;5033;46.310;11.214;2023-02-28T14:06:54;13.30;86.80
9987;DHT22;5033;46.310;11.214;2023-02-28T14:09:25;13.20;87.40
9987;DHT22;5033;46.310;11.214;2023-02-28T14:11:54;13.10;88.30
9987;DHT22;5033;46.310;11.214;2023-02-28T14:17:27;13.10;89.10
9987;DHT22;5033;46.310;11.214;2023-02-28T14:19:54;13.00;88.50
9987;DHT22;5033;46.310;11.214;2023-02-28T14:22:50;13.10;88.20
9987;DHT22;5033;46.310;11.214;2023-02-28T14:25:23;13.20;87.30
9987;DHT22;5033;46.310;11.214;2023-02-28T14:28:00;13.30;88.00
9987;DHT22;5033;46.310;11.214;2023-02-28T14:30:43;13.20;86.70
9987;DHT22;5033;46.310;11.214;2023-02-28T14:33:22;13.10;88.30
9987;DHT22;5033;46.310;11.214;2023-02-28T14:36:11;13.00;88.00
9987;DHT22;5033;46.310;11.214;2023-02-28T14:38:45;13.00;87.50
9987;DHT22;5033;46.310;11.214;2023-02-28T14:41:20;13.00;87.60
9987;DHT22;5033;46.310;11.214;2023-02-28T14:43:53;13.10;87.20
9987;DHT22;5033;46.310;11.214;2023-02-28T14:46:21;13.10;87.50
9987;DHT22;5033;46.310;11.214;2023-02-28T14:48:49;13.10;88.60
9987;DHT22;5033;46.310;11.214;2023-02-28T14:51:22;13.10;88.60
9987;DHT22;5033;46.310;11.214;2023-02-28T14:53:56;13.10;89.40
9987;DHT22;5033;46.310;11.214;2023-02-28T14:56:25;13.20;88.30
9987;DHT22;5033;46.310;11.214;2023-02-28T14:58:54;13.10;88.50
9987;DHT22;5033;46.310;11.214;2023-02-28T15:01:24;13.10;88.80
9987;DHT22;5033;46.310;11.214;2023-02-28T15:03:58;13.50;90.00
9987;DHT22;5033;46.310;11.214;2023-02-28T15:06:27;13.60;88.20
9987;DHT22;5033;46.310;11.214;2023-02-28T15:09:09;13.80;89.20
9987;DHT22;5033;46.310;11.214;2023-02-28T15:11:37;14.00;88.90
9987;DHT22;5033;46.310;11.214;2023-02-28T15:14:05;14.10;89.40
9987;DHT22;5033;46.310;11.214;2023-02-28T15:16:35;14.10;89.10
9987;DHT22;5033;46.310;11.214;2023-02-28T15:19:06;14.10;89.60
9987;DHT22;5033;46.310;11.214;2023-02-28T15:21:35;13.90;90.00
9987;DHT22;5033;46.310;11.214;2023-02-28T15:24:05;13.70;90.00
9987;DHT22;5033;46.310;11.214;2023-02-28T15:26:38;13.50;90.30
9987;DHT22;5033;46.310;11.214;2023-02-28T15:29:10;13.30;90.70
9987;DHT22;5033;46.310;11.214;2023-02-28T15:31:43;13.10;91.10
9987;DHT22;5033;46.310;11.214;2023-02-28T15:34:19;13.00;91.50
9987;DHT22;5033;46.310;11.214;2023-02-28T15:36:47;12.70;91.50
9987;DHT22;5033;46.310;11.214;2023-02-28T15:39:20;12.50;91.80
9987;DHT22;5033;46.310;11.214;2023-02-28T15:41:48;12.40;92.60
9987;DHT22;5033;46.310;11.214;2023-02-28T15:44:18;12.30;92.80
9987;DHT22;5033;46.310;11.214;2023-02-28T15:46:58;12.20;93.00
9987;DHT22;5033;46.310;11.214;2023-02-28T15:49:25;12.10;92.90
9987;DHT22;5033;46.310;11.214;2023-02-28T15:51:53;12.00;93.00
9987;DHT22;5033;46.310;11.214;2023-02-28T15:54:24;11.90;93.20
9987;DHT22;5033;46.310;11.214;2023-02-28T15:56:56;11.80;93.20
9987;DHT22;5033;46.310;11.214;2023-02-28T15:59:26;11.70;93.20
9987;DHT22;5033;46.310;11.214;2023-02-28T16:02:15;11.60;93.30
9987;DHT22;5033;46.310;11.214;2023-02-28T16:05:01;11.40;93.40
9987;DHT22;5033;46.310;11.214;2023-02-28T16:07:29;11.40;93.60
9987;DHT22;5033;46.310;11.214;2023-02-28T16:09:56;11.30;93.80
9987;DHT22;5033;46.310;11.214;2023-02-28T16:12:28;11.20;93.90
9987;DHT22;5033;46.310;11.214;2023-02-28T16:14:57;11.10;94.30
9987;DHT22;5033;46.310;11.214;2023-02-28T16:17:26;10.90;94.30
9987;DHT22;5033;46.310;11.214;2023-02-28T16:19:54;10.80;94.60
9987;DHT22;5033;46.310;11.214;2023-02-28T16:22:21;10.70;94.60
9987;DHT22;5033;46.310;11.214;2023-02-28T16:24:48;10.70;94.70
9987;DHT22;5033;46.310;11.214;2023-02-28T16:27:18;10.60;94.60
9987;DHT22;5033;46.310;11.214;2023-02-28T16:29:48;10.60;94.60
9987;DHT22;5033;46.310;11.214;2023-02-28T16:32:16;10.50;94.70
9987;DHT22;5033;46.310;11.214;2023-02-28T16:34:44;10.40;94.90
9987;DHT22;5033;46.310;11.214;2023-02-28T16:37:16;10.40;95.00
9987;DHT22;5033;46.310;11.214;2023-02-28T16:39:44;10.30;95.00
9987;DHT22;5033;46.310;11.214;2023-02-28T16:42:16;10.20;95.10
9987;DHT22;5033;46.310;11.214;2023-02-28T16:44:44;10.00;95.50